Date,TemperatureHighF,TemperatureAvgF,TemperatureLowF,DewpointHighF,DewpointAvgF,DewpointLowF,HumidityHigh,HumidityAvg,HumidityLow,PressureMaxIn,PressureMinIn,WindSpeedMaxMPH,WindSpeedAvgMPH,GustSpeedMaxMPH,PrecipitationSumIn
2013-1-1,34,31,30,29,27,26,93,86,77,30.61,30.47,6,2,0,0.00
2013-1-2,32,30,29,28,26,25,92,86,80,30.59,30.46,10,4,0,0.00
2013-1-3,31,26,22,27,24,21,98,90,80,30.46,30.33,5,2,0,0.00
2013-1-4,34,29,22,28,26,21,98,90,76,30.42,30.35,7,3,0,0.00
2013-1-5,35,31,29,30,28,26,98,90,79,30.38,30.19,7,2,0,0.00
2013-1-6,33,30,26,31,29,26,98,96,90,30.19,30.04,8,2,0,0.00
2013-1-7,51,41,30,46,34,8,98,79,35,30.03,29.80,21,6,0,0.00
2013-1-8,51,46,40,45,42,38,98,87,79,30.07,29.81,11,4,0,0.00
2013-1-9,54,47,38,44,39,31,81,75,61,29.82,29.56,18,6,0,0.00
2013-1-10,43,36,28,32,27,20,89,73,59,29.97,29.79,9,3,0,0.00
2013-1-11,40,30,24,30,24,17,97,78,59,30.25,29.97,9,4,0,0.00
2013-1-12,32,24,17,24,20,16,98,87,63,30.36,30.24,7,3,0,0.00
2013-1-13,30,24,17,23,20,16,96,87,67,30.45,30.36,5,2,0,0.00
2013-1-14,36,28,24,28,25,22,97,88,70,30.45,30.28,6,1,0,0.00
2013-1-15,36,26,20,30,24,19,98,91,76,30.60,30.46,6,1,0,0.00
2013-1-16,31,27,19,28,25,19,98,94,86,30.61,30.54,5,1,0,0.00
2013-1-17,32,30,28,28,28,27,98,92,83,30.57,30.39,5,2,0,0.00
2013-1-18,32,29,28,28,27,26,98,93,87,30.39,30.26,6,2,0,0.00
2013-1-19,31,29,28,28,27,27,95,92,87,30.48,30.35,5,2,0,0.00
2013-1-20,31,29,28,28,27,26,96,92,85,30.55,30.43,6,2,0,0.00
2013-1-21,29,27,25,27,25,24,96,92,90,30.43,30.32,6,3,0,0.00
2013-1-22,27,25,24,24,22,21,96,88,80,30.34,30.18,6,3,0,0.00
2013-1-23,30,27,26,27,24,23,92,88,83,30.19,29.95,8,3,0,0.00
2013-1-24,35,29,22,30,26,21,98,92,83,30.24,30.09,10,3,0,0.00
2013-1-25,35,32,29,33,31,28,98,96,91,30.14,29.92,5,1,0,0.00
2013-1-26,37,34,32,37,33,21,98,94,61,29.98,29.88,5,2,0,0.00
2013-1-27,44,37,32,38,34,31,98,90,77,30.01,29.89,11,2,0,0.00
2013-1-28,44,39,30,38,35,29,98,86,76,29.93,29.83,10,4,0,0.00
2013-1-29,49,45,39,41,38,35,86,78,70,30.16,29.87,11,3,0,0.00
2013-1-30,55,48,43,45,42,38,86,79,70,30.21,30.12,14,5,0,0.00
2013-1-31,56,48,38,46,43,37,98,81,66,30.25,30.16,7,3,0,0.00
2013-2-1,56,42,32,43,38,31,98,86,59,30.40,30.19,5,2,0,0.00
2013-2-2,50,36,27,42,28,-58,98,81,1,30.42,30.22,5,2,0,0.00
2013-2-3,39,34,29,38,-10,-60,98,50,1,30.23,30.11,5,2,0,0.00
2013-2-4,49,39,34,44,34,0,98,84,23,30.11,29.88,6,2,0,0.00
2013-2-5,54,43,32,44,38,27,98,82,64,29.89,29.79,17,5,0,0.00
2013-2-6,55,47,40,40,38,35,85,71,52,30.01,29.82,14,5,0,0.00
2013-2-7,49,40,29,38,35,28,98,83,64,30.01,29.80,10,2,0,0.00
2013-2-8,50,36,27,35,31,26,98,82,52,30.12,30.01,6,2,0,0.00
2013-2-9,50,36,25,36,30,24,98,83,53,30.15,30.02,6,2,0,0.00
2013-2-10,50,36,25,37,30,24,98,82,56,30.24,30.15,5,2,0,0.00
2013-2-11,48,35,23,39,31,22,98,87,66,30.20,30.13,6,2,0,0.00
2013-2-12,56,43,28,46,38,27,98,83,64,30.27,30.16,16,4,0,0.00
2013-2-13,56,49,36,43,40,30,83,73,61,30.34,30.14,17,5,0,0.00
2013-2-14,55,42,32,41,36,30,98,81,58,30.47,30.34,6,2,0,0.00
2013-2-15,56,40,27,44,34,18,98,81,60,30.49,30.19,7,2,0,0.00
2013-2-16,58,42,28,46,35,24,98,78,50,30.19,29.92,14,4,0,0.00
2013-2-17,54,43,32,35,31,27,85,65,46,30.10,30.02,10,4,0,0.00
2013-2-18,46,37,28,34,30,25,93,77,61,30.04,29.71,7,2,0,0.00
2013-2-19,50,38,31,37,32,29,98,79,57,29.88,29.69,8,3,0,0.00
2013-2-20,52,38,24,38,31,24,98,77,51,29.98,29.87,7,2,0,0.00
2013-2-21,50,40,27,39,34,25,98,79,59,29.99,29.93,20,6,0,0.00
2013-2-22,51,45,38,43,38,31,82,75,66,29.97,29.66,21,9,0,0.00
2013-2-23,54,43,35,37,31,25,79,63,41,30.24,29.79,16,6,0,0.00
2013-2-24,48,39,30,36,32,26,89,75,62,30.29,29.97,14,4,0,0.00
2013-2-25,54,43,34,39,34,27,94,71,36,30.16,29.87,25,9,0,0.00
2013-2-26,52,42,30,35,31,28,90,67,49,30.30,30.15,11,4,0,0.00
2013-2-27,59,46,31,42,36,27,84,69,50,30.24,30.13,8,3,0,0.00
2013-2-28,55,48,44,50,45,39,98,90,73,30.26,30.16,16,2,0,0.00
2013-3-1,64,57,50,52,49,46,87,73,58,30.30,30.19,20,7,0,0.00
2013-3-2,59,53,46,50,46,37,95,80,56,30.20,29.90,13,4,0,0.00
2013-3-3,58,45,32,37,26,20,67,49,27,30.17,29.97,17,7,0,0.00
2013-3-4,54,39,24,34,26,20,86,63,38,30.25,29.96,9,3,0,0.00
2013-3-5,49,39,28,39,32,24,97,79,59,29.96,29.72,13,4,0,0.00
2013-3-6,47,42,36,42,39,35,97,90,74,29.82,29.52,16,7,0,0.00
2013-3-7,57,47,32,39,34,27,84,64,38,29.99,29.83,12,5,0,0.00
2013-3-8,56,42,27,44,34,26,96,77,54,30.10,29.97,7,2,0,0.00
2013-3-9,60,44,28,43,35,26,95,72,50,30.34,30.10,6,2,0,0.00
2013-3-10,56,45,31,45,37,28,88,75,51,30.35,30.20,6,2,0,0.00
2013-3-11,58,48,38,45,39,36,96,74,51,30.28,30.13,6,3,0,0.00
2013-3-12,65,56,48,51,47,42,89,72,52,30.12,29.98,14,6,0,0.00
2013-3-13,70,58,51,51,46,43,80,66,51,30.11,30.00,8,4,0,0.00
2013-3-14,68,56,47,53,47,38,92,73,46,30.02,29.89,8,2,0,0.00
2013-3-15,66,56,48,50,46,42,87,70,51,30.11,30.00,9,4,0,0.00
2013-3-16,58,51,41,46,41,32,84,69,51,29.99,29.74,22,8,0,0.00
2013-3-17,55,45,38,34,32,26,76,60,36,30.05,29.84,19,10,0,0.00
2013-3-18,58,46,35,37,31,27,80,60,34,30.17,29.98,20,8,0,0.00
2013-3-19,56,41,25,39,28,21,88,63,42,30.18,29.70,11,4,0,0.00
2013-3-20,62,47,39,48,39,32,98,76,39,29.87,29.46,21,8,0,0.00
2013-3-21,55,44,38,36,32,30,77,63,42,30.06,29.87,21,9,0,0.00
2013-3-22,54,42,31,32,27,22,77,58,36,30.26,30.05,16,4,0,0.00
2013-3-23,52,37,25,32,26,20,86,65,42,30.33,30.20,5,2,0,0.00
2013-3-24,57,39,22,35,26,19,91,63,35,30.29,30.08,7,2,0,0.00
2013-3-25,59,46,32,36,30,26,77,57,37,30.11,29.88,10,4,0,0.00
2013-3-26,65,52,42,40,36,32,70,53,38,29.96,29.84,6,2,0,0.00
2013-3-27,66,56,46,51,46,39,95,73,54,29.90,29.81,8,4,0,0.00
2013-3-28,67,55,44,49,45,41,88,70,48,30.00,29.89,5,1,0,0.00
2013-3-29,70,57,47,52,46,42,90,70,49,30.14,30.00,6,2,0,0.00
2013-3-30,74,56,37,51,43,36,97,66,34,30.21,29.99,6,2,0,0.00
2013-3-31,76,57,36,51,43,34,94,63,37,30.02,29.77,12,3,0,0.00
2013-4-1,78,60,40,52,46,38,91,63,36,29.91,29.79,6,3,0,0.00
2013-4-2,74,61,47,53,49,45,93,67,43,30.02,29.88,10,4,0,0.00
2013-4-3,72,60,44,50,46,41,90,63,36,30.05,29.85,6,2,0,0.00
2013-4-4,60,55,48,55,49,43,97,81,67,29.85,29.62,11,3,0,0.00
2013-4-5,69,58,50,52,48,46,93,70,50,29.81,29.73,18,6,0,0.00
2013-4-6,62,55,50,50,45,40,94,69,50,29.87,29.73,21,7,0,0.00
2013-4-7,61,52,42,48,43,37,98,71,48,29.75,29.49,26,10,0,0.00
2013-4-8,60,49,37,44,40,34,92,71,54,30.13,29.72,9,3,0,0.00
2013-4-9,66,51,36,48,41,34,94,70,42,30.28,30.09,6,3,0,0.00
2013-4-10,71,59,49,52,42,36,68,54,36,30.09,29.83,22,8,0,0.00
2013-4-11,63,51,42,43,38,32,80,60,39,30.13,29.99,11,4,0,0.00
2013-4-12,61,49,35,46,38,31,90,69,42,30.05,29.57,14,4,0,0.00
2013-4-13,61,51,42,42,33,28,75,51,33,29.85,29.56,19,10,0,0.00
2013-4-14,60,48,39,38,35,32,81,61,39,29.89,29.76,15,5,0,0.00
2013-4-15,56,46,35,43,36,32,92,71,53,30.02,29.81,13,4,0,0.00
2013-4-16,58,46,34,34,27,24,70,50,30,30.29,30.02,14,5,0,0.00
2013-4-17,62,46,27,36,29,22,85,53,27,30.42,30.25,8,3,0,0.00
2013-4-18,67,56,40,49,42,33,82,61,45,30.30,30.10,10,4,0,0.00
2013-4-19,65,56,51,52,49,42,92,76,61,30.10,29.87,14,8,0,0.00
2013-4-20,69,57,46,49,44,41,84,63,42,30.09,29.97,16,6,0,0.00
2013-4-21,70,55,43,45,41,35,84,61,34,30.19,29.95,16,4,0,0.00
2013-4-22,62,50,38,38,32,24,84,52,25,30.44,30.20,13,4,0,0.00
2013-4-23,67,53,34,35,30,23,86,46,20,30.33,30.10,6,3,0,0.00
2013-4-24,72,55,35,43,36,30,84,53,23,30.27,29.86,6,3,0,0.00
2013-4-25,78,64,43,48,43,38,85,50,29,29.94,29.84,10,3,0,0.00
2013-4-26,84,69,50,54,45,38,81,47,22,30.07,29.94,8,3,0,0.00
2013-4-27,76,65,55,46,42,36,62,45,24,30.04,29.91,18,6,0,0.00
2013-4-28,72,60,46,49,45,38,88,58,35,30.05,29.83,20,6,0,0.00
2013-4-29,65,57,45,46,38,27,73,50,25,29.96,29.75,21,11,0,0.00
2013-4-30,59,49,34,36,31,27,82,52,34,30.31,29.96,13,4,0,0.00
2013-5-1,66,52,34,41,34,27,85,53,26,30.52,30.31,5,2,0,0.00
2013-5-2,74,57,38,46,39,32,86,53,29,30.50,30.13,5,2,0,0.00
2013-5-3,78,65,48,51,46,40,84,54,32,30.22,30.02,12,5,0,0.00
2013-5-4,81,66,49,50,45,41,81,49,26,30.12,29.86,20,7,0,0.00
2013-5-5,85,68,50,52,46,38,68,47,24,29.88,29.65,11,4,0,0.00
2013-5-6,88,71,50,55,47,34,77,47,15,29.77,29.57,8,2,0,0.00
2013-5-7,90,73,51,56,49,28,81,48,11,29.73,29.62,6,2,0,0.00
2013-5-8,90,74,58,62,54,36,82,53,15,29.87,29.71,7,2,0,0.00
2013-5-9,92,76,60,60,56,51,79,53,30,29.98,29.84,5,2,0,0.00
2013-5-10,98,78,56,62,49,-20,84,47,1,30.02,29.88,6,2,0,0.00
2013-5-11,94,78,60,63,58,53,79,51,27,29.98,29.80,6,2,0,0.00
2013-5-12,88,77,66,64,58,49,76,54,31,29.90,29.83,14,5,0,0.00
2013-5-13,72,64,54,58,52,42,88,65,44,30.06,29.87,17,5,0,0.00
2013-5-14,72,61,46,49,41,33,84,51,25,30.12,29.92,8,3,0,0.00
2013-5-15,72,58,45,50,44,38,81,61,39,30.00,29.82,11,3,0,0.00
2013-5-16,76,65,50,54,49,45,85,60,35,29.87,29.70,9,3,0,0.00
2013-5-17,73,63,53,54,50,45,83,63,45,29.88,29.74,11,5,0,0.00
2013-5-18,71,61,51,50,47,43,81,61,45,30.06,29.89,16,6,0,0.00
2013-5-19,76,64,54,53,47,42,72,55,39,30.20,30.06,9,3,0,0.00
2013-5-20,82,67,48,55,50,43,85,57,33,30.20,29.69,6,2,0,0.00
2013-5-21,67,57,46,53,48,42,93,73,55,29.71,29.57,19,6,0,0.00
2013-5-22,57,49,42,45,42,38,87,77,63,29.91,29.72,17,8,0,0.00
2013-5-23,69,56,40,48,44,37,94,67,39,29.97,29.83,8,3,0,0.00
2013-5-24,66,56,47,50,46,43,92,72,50,29.93,29.85,11,4,0,0.00
2013-5-25,73,60,44,51,47,42,92,64,40,29.94,29.81,11,3,0,0.00
2013-5-26,71,59,48,58,50,44,92,72,53,29.88,29.81,7,3,0,0.00
2013-5-27,67,60,50,56,52,46,93,76,57,29.84,29.67,10,3,0,0.00
2013-5-28,75,63,54,55,50,44,93,65,40,29.75,29.65,11,5,0,0.00
2013-5-29,68,58,52,57,51,44,93,77,60,29.83,29.58,19,4,0,0.00
2013-5-30,71,62,52,50,47,44,79,59,39,30.06,29.83,10,5,0,0.00
2013-5-31,76,62,47,53,47,43,89,60,34,30.21,30.06,6,2,0,0.00
2013-6-1,81,65,48,55,48,43,88,58,29,30.10,29.84,9,3,0,0.00
2013-6-2,79,68,54,54,50,47,80,54,37,29.87,29.77,11,4,0,0.00
2013-6-3,82,68,51,55,50,45,80,54,31,29.95,29.82,9,3,0,0.00
2013-6-4,85,71,55,60,54,48,80,58,34,30.03,29.89,8,3,0,0.00
2013-6-5,91,76,55,62,56,52,87,53,29,29.94,29.76,9,3,0,0.00
2013-6-6,88,75,63,63,57,50,78,54,40,29.88,29.72,6,2,0,0.00
2013-6-7,92,76,62,61,56,48,79,51,32,29.88,29.74,16,4,0,0.00
2013-6-8,89,74,54,55,51,45,83,49,22,29.96,29.76,12,4,0,0.00
2013-6-9,86,73,56,58,50,42,78,47,22,29.88,29.69,18,4,0,0.00
2013-6-10,80,69,52,55,49,44,77,50,36,29.81,29.61,9,3,0,0.00
2013-6-11,74,65,55,50,47,43,74,55,36,29.95,29.66,19,8,0,0.00
2013-6-12,76,64,47,51,46,42,87,55,31,30.01,29.87,11,4,0,0.00
2013-6-13,74,64,51,51,48,45,83,57,38,30.02,29.93,16,4,0,0.00
2013-6-14,79,66,53,52,48,44,80,55,30,30.10,29.89,12,4,0,0.00
2013-6-15,86,70,50,58,52,46,88,56,32,29.91,29.74,9,3,0,0.00
2013-6-16,92,77,60,62,55,49,70,49,27,29.88,29.73,11,4,0,0.00
2013-6-17,88,76,66,60,56,53,69,52,32,29.89,29.68,15,5,0,0.00
2013-6-18,69,62,59,58,56,53,95,79,58,29.86,29.75,9,3,0,0.00
2013-6-19,70,64,57,58,53,48,96,68,48,29.82,29.70,17,5,0,0.00
2013-6-20,69,61,55,55,51,43,94,70,49,29.99,29.82,15,6,0,0.00
2013-6-21,71,60,53,59,42,-45,98,65,1,30.03,29.97,6,2,0,0.00
2013-6-22,80,67,50,59,54,48,98,66,37,30.00,29.76,10,3,0,0.00
2013-6-23,78,67,55,62,57,53,96,73,48,29.77,29.52,8,3,0,0.00
2013-6-24,72,64,59,63,57,37,97,77,42,29.60,29.51,10,4,0,0.00
2013-6-25,76,64,57,63,58,52,96,82,58,29.76,29.60,11,3,0,0.00
2013-6-26,74,66,58,65,60,56,94,81,65,29.96,29.76,8,2,0,0.00
2013-6-27,83,73,59,67,62,41,95,70,50,30.05,29.96,10,4,0,0.00
2013-6-28,94,80,62,71,66,60,94,66,44,30.10,29.86,6,2,0,0.00
2013-6-29,92,80,69,73,68,65,94,69,47,29.92,29.81,11,4,0,0.00
2013-6-30,97,83,67,74,70,65,94,67,44,29.92,29.74,11,4,0,0.00
2013-7-1,104,88,70,74,68,61,76,53,33,29.83,29.67,12,5,0,0.00
2013-7-2,105,91,74,76,69,59,80,52,28,29.86,29.69,8,3,0,0.00
2013-7-3,96,85,71,68,60,46,72,45,25,29.92,29.71,9,3,0,0.00
2013-7-4,92,79,64,60,55,46,74,46,24,29.83,29.66,12,4,0,0.00
2013-7-5,86,75,58,58,54,50,84,51,34,29.80,29.66,11,4,0,0.00
2013-7-6,93,73,57,61,55,48,86,57,24,29.80,29.63,6,2,0,0.00
2013-7-7,97,79,61,62,58,50,85,51,25,29.76,29.59,10,2,0,0.00
2013-7-8,90,78,64,63,59,56,78,55,36,29.88,29.69,9,2,0,0.00
2013-7-9,96,80,62,67,57,-20,87,51,1,29.99,29.77,7,2,0,0.00
2013-7-10,99,83,65,65,56,25,75,45,8,29.82,29.59,12,4,0,0.00
2013-7-11,90,77,62,59,47,-24,74,40,1,29.81,29.65,10,4,0,0.00
2013-7-12,85,71,54,56,48,42,69,45,27,29.89,29.73,14,4,0,0.00
2013-7-13,85,71,53,53,48,39,70,46,20,30.04,29.89,8,2,0,0.00
2013-7-14,92,75,54,57,50,28,83,46,10,30.00,29.73,6,2,0,0.00
2013-7-15,87,75,59,56,50,42,63,42,25,29.90,29.73,9,4,0,0.00
2013-7-16,94,79,64,61,55,49,62,45,27,29.83,29.61,12,6,0,0.00
2013-7-17,97,83,66,63,56,31,72,42,10,29.92,29.67,9,3,0,0.00
2013-7-18,96,81,62,63,56,48,65,44,25,30.02,29.83,8,2,0,0.00
2013-7-19,99,83,63,63,57,50,80,47,21,29.94,29.73,8,3,0,0.00
2013-7-20,99,83,63,62,50,-26,81,41,1,29.83,29.62,9,3,0,0.00
2013-7-21,98,83,63,63,56,41,79,42,24,29.71,29.57,6,2,0,0.00
2013-7-22,99,84,65,62,55,-18,76,44,1,29.78,29.64,9,3,0,0.00
2013-7-23,100,83,66,62,50,-19,68,40,1,29.88,29.70,8,2,0,0.00
2013-7-24,98,83,64,63,59,55,75,47,26,29.85,29.72,8,2,0,0.00
2013-7-25,98,84,63,62,55,-18,76,43,1,29.90,29.76,7,2,0,0.00
2013-7-26,100,83,63,60,51,-4,74,38,2,29.93,29.74,15,3,0,0.00
2013-7-27,93,80,63,60,53,45,70,42,24,29.91,29.67,9,2,0,0.00
2013-7-28,89,76,61,56,54,46,74,49,26,29.77,29.65,8,3,0,0.00
2013-7-29,89,76,62,60,56,52,70,51,34,29.80,29.69,8,3,0,0.00
2013-7-30,93,79,65,61,56,48,72,48,23,29.93,29.75,7,2,0,0.00
2013-7-31,84,74,63,62,58,54,77,58,41,29.94,29.77,7,2,0,0.00
2013-8-1,82,72,63,64,60,57,84,67,52,29.82,29.72,12,5,0,0.00
2013-8-2,77,68,61,63,59,56,95,74,56,29.93,29.82,10,3,0,0.00
2013-8-3,83,73,61,68,59,35,93,64,36,30.01,29.86,7,2,0,0.00
2013-8-4,90,77,60,66,62,58,93,63,35,29.93,29.75,6,2,0,0.00
2013-8-5,94,80,63,67,62,59,88,57,34,29.87,29.69,8,2,0,0.00
2013-8-6,98,82,64,66,50,-20,84,47,1,29.83,29.66,8,2,0,0.00
2013-8-7,96,81,62,62,53,-7,77,42,2,29.81,29.68,8,2,0,0.00
2013-8-8,94,79,66,62,59,53,81,52,26,29.82,29.67,6,2,0,0.00
2013-8-9,95,80,65,66,62,58,81,56,35,29.78,29.57,18,4,0,0.00
2013-8-10,92,80,67,67,62,58,80,56,39,29.83,29.70,10,4,0,0.00
2013-8-11,91,79,66,67,61,55,84,56,31,29.88,29.74,6,2,0,0.00
2013-8-12,92,79,63,64,59,55,80,53,33,29.88,29.74,7,2,0,0.00
2013-8-13,94,80,65,62,58,53,74,50,27,29.94,29.75,7,2,0,0.00
2013-8-14,97,80,62,63,59,54,85,53,27,29.81,29.65,8,2,0,0.00
2013-8-15,95,82,67,63,58,52,61,46,28,29.83,29.69,13,3,0,0.00
2013-8-16,90,79,68,66,63,60,82,60,43,29.87,29.78,8,3,0,0.00
2013-8-17,92,81,67,67,62,56,83,55,33,29.89,29.77,9,4,0,0.00
2013-8-18,93,78,61,64,59,52,91,54,29,29.96,29.78,8,3,0,0.00
2013-8-19,92,79,63,62,58,53,82,52,32,29.94,29.77,13,4,0,0.00
2013-8-20,87,75,60,61,56,53,80,54,35,29.98,29.82,9,2,0,0.00
2013-8-21,90,74,56,60,54,47,80,53,23,29.96,29.76,7,2,0,0.00
2013-8-22,90,78,63,62,57,54,75,50,31,29.81,29.66,5,2,0,0.00
2013-8-23,89,78,69,64,59,51,72,54,34,29.72,29.61,14,5,0,0.00
2013-8-24,87,75,63,62,58,52,80,57,37,29.74,29.60,10,3,0,0.00
2013-8-25,85,72,64,63,59,55,92,65,43,29.81,29.63,13,3,0,0.00
2013-8-26,83,72,60,65,61,57,93,70,50,29.85,29.75,8,3,0,0.00
2013-8-27,88,74,59,64,60,55,89,62,41,29.86,29.61,7,2,0,0.00
2013-8-28,91,77,62,66,62,57,88,62,39,29.75,29.63,7,2,0,0.00
2013-8-29,92,77,64,66,62,59,86,61,38,29.91,29.72,12,4,0,0.00
2013-8-30,88,78,66,63,60,57,82,56,37,30.01,29.87,10,4,0,0.00
2013-8-31,90,75,57,62,57,53,87,57,35,29.96,29.70,11,3,0,0.00
2013-9-1,94,76,59,62,58,54,89,56,33,29.76,29.57,6,2,0,0.00
2013-9-2,88,77,65,69,62,57,84,61,41,29.75,29.60,6,2,0,0.00
2013-9-3,91,78,66,68,65,59,92,66,38,29.82,29.71,6,2,0,0.00
2013-9-4,92,78,65,66,63,58,88,61,39,29.86,29.73,9,3,0,0.00
2013-9-5,84,72,65,68,64,60,94,78,56,29.86,29.66,12,3,0,0.00
2013-9-6,74,66,59,61,58,54,90,75,62,29.99,29.83,11,4,0,0.00
2013-9-7,78,66,54,64,59,48,94,79,53,30.03,29.89,9,2,0,0.00
2013-9-8,84,71,57,64,60,56,94,70,44,29.99,29.82,7,2,0,0.00
2013-9-9,88,74,59,64,60,56,89,64,38,29.89,29.73,5,2,0,0.00
2013-9-10,91,75,58,67,62,56,94,67,41,29.91,29.75,10,3,0,0.00
2013-9-11,95,78,61,66,61,57,88,60,36,29.93,29.76,7,2,0,0.00
2013-9-12,91,76,62,67,62,57,84,64,43,29.87,29.69,5,2,0,0.00
2013-9-13,95,79,64,67,64,59,87,61,37,29.72,29.55,5,2,0,0.00
2013-9-14,93,78,63,67,64,60,90,64,38,29.72,29.56,9,3,0,0.00
2013-9-15,95,76,62,67,62,59,91,67,38,29.62,29.38,14,3,0,0.00
2013-9-16,79,69,60,61,58,54,94,70,50,29.77,29.63,13,5,0,0.00
2013-9-17,70,63,57,60,56,47,93,78,57,29.73,29.62,13,3,0,0.00
2013-9-18,75,64,54,52,49,46,78,60,42,29.95,29.73,10,4,0,0.00
2013-9-19,79,62,46,56,50,44,92,66,36,30.00,29.72,6,3,0,0.00
2013-9-20,80,65,48,54,50,44,90,61,35,29.72,29.40,12,3,0,0.00
2013-9-21,75,67,59,57,54,51,83,65,47,29.60,29.49,13,5,0,0.00
2013-9-22,70,61,55,56,52,50,93,75,54,29.68,29.55,14,6,0,0.00
2013-9-23,68,62,55,52,51,48,82,67,55,29.85,29.68,15,7,0,0.00
2013-9-24,66,59,52,53,50,45,89,74,58,29.83,29.67,14,4,0,0.00
2013-9-25,69,57,46,52,46,42,93,69,39,29.78,29.68,8,3,0,0.00
2013-9-26,70,59,52,53,47,44,87,67,45,29.96,29.78,10,4,0,0.00
2013-9-27,64,55,47,52,48,42,91,78,55,30.00,29.82,11,4,0,0.00
2013-9-28,71,63,54,58,55,49,95,76,58,29.82,29.34,19,5,0,0.00
2013-9-29,64,59,53,53,49,46,87,70,59,29.59,29.27,24,8,0,0.00
2013-9-30,66,59,53,55,46,42,82,63,53,29.87,29.31,25,10,0,0.00
2013-10-1,60,54,48,48,44,42,83,71,56,30.07,29.87,16,6,0,0.00
2013-10-2,59,51,43,47,43,39,89,76,62,30.08,29.94,7,3,0,0.00
2013-10-3,66,54,43,47,44,41,94,72,47,30.30,29.99,8,3,0,0.00
2013-10-4,66,51,37,48,43,36,94,75,49,30.45,30.30,4,2,0,0.00
2013-10-5,70,53,37,50,44,35,93,75,49,30.34,30.12,4,2,0,0.00
2013-10-6,69,54,38,50,44,36,94,72,46,30.12,29.80,4,2,0,0.00
2013-10-7,69,58,50,53,46,44,86,66,47,29.87,29.77,21,7,0,0.00
2013-10-8,60,51,43,48,45,41,94,80,64,29.91,29.78,14,6,0,0.00
2013-10-9,61,49,37,49,38,-54,94,71,1,30.03,29.83,7,2,0,0.00
2013-10-10,66,56,48,49,45,42,86,70,47,29.90,29.77,6,2,0,0.00
2013-10-11,64,53,45,48,45,42,92,74,52,30.04,29.90,4,1,0,0.00
2013-10-12,56,52,46,50,46,42,93,81,71,30.08,29.92,7,2,0,0.00
2013-10-13,63,53,44,49,42,38,93,69,43,30.22,30.11,5,2,0,0.00
2013-10-14,63,48,36,46,40,34,92,75,51,30.36,30.22,6,2,0,0.00
2013-10-15,62,47,33,45,39,32,93,77,49,30.36,30.08,4,2,0,0.00
2013-10-16,64,50,37,46,41,35,93,74,43,30.13,30.03,4,1,0,0.00
2013-10-17,65,50,37,47,42,34,92,74,48,30.21,30.09,5,2,0,0.00
2013-10-18,64,49,36,48,42,34,93,78,52,30.25,30.08,4,2,0,0.00
2013-10-19,64,48,34,48,41,32,93,80,54,30.11,29.98,5,1,0,0.00
2013-10-20,69,54,37,52,46,35,93,74,53,30.11,29.98,5,2,0,0.00
2013-10-21,68,52,39,53,46,37,93,80,58,30.14,30.01,4,1,0,0.00
2013-10-22,67,52,40,53,42,-51,95,74,1,30.12,29.96,5,1,0,0.00
2013-10-23,67,51,38,54,43,15,92,75,37,30.07,29.94,7,1,0,0.00
2013-10-24,63,50,40,52,42,17,92,76,37,30.07,29.96,5,2,0,0.00
2013-10-25,63,49,37,52,38,-53,92,73,1,30.20,30.03,5,1,0,0.00
2013-10-26,62,47,36,52,39,6,93,74,24,30.27,30.01,4,1,0,0.00
2013-10-27,53,48,42,50,42,13,94,80,29,30.00,29.68,14,5,0,0.00
2013-10-28,56,48,42,39,32,26,71,55,39,29.84,29.75,22,12,0,0.00
2013-10-29,52,41,30,33,28,23,79,61,43,30.00,29.85,9,2,0,0.00
2013-10-30,58,42,28,41,33,25,92,73,51,30.02,29.94,4,2,0,0.00
2013-10-31,69,56,42,51,46,37,93,72,51,30.11,29.97,12,4,0,0.00
2013-11-1,66,52,41,51,44,39,94,76,50,30.19,29.84,6,2,0,0.00
2013-11-2,60,51,44,50,43,36,94,75,53,29.84,29.53,29,9,0,0.00
2013-11-3,56,46,40,38,36,33,83,69,46,29.97,29.80,20,6,0,0.00
2013-11-4,51,41,33,36,31,27,86,69,44,30.12,29.98,4,2,0,0.00
2013-11-5,47,41,35,41,37,30,93,86,78,30.17,30.05,7,3,0,0.00
2013-11-6,48,41,33,42,36,20,94,83,53,30.33,30.17,9,4,0,0.00
2013-11-7,52,46,41,46,40,32,94,81,66,30.17,29.75,22,6,0,0.00
2013-11-8,56,52,46,46,44,42,85,73,66,30.06,30.00,14,6,0,0.00
2013-11-9,50,45,37,43,41,32,94,83,78,30.13,30.02,11,4,0,0.00
2013-11-10,54,47,42,47,43,40,94,87,73,30.18,30.06,6,2,0,0.00
2013-11-11,54,44,36,46,38,25,94,82,53,30.30,30.17,6,2,0,0.00
2013-11-12,54,45,38,48,38,12,97,77,31,30.31,30.18,5,2,0,0.00
2013-11-13,60,44,32,50,19,-58,94,57,1,30.36,30.18,7,1,0,0.00
2013-11-14,48,40,34,44,22,-55,97,66,1,30.19,29.90,6,1,0,0.00
2013-11-15,50,44,34,41,37,16,98,78,42,29.91,29.27,21,7,0,0.00
2013-11-16,56,48,42,42,36,32,82,64,44,29.65,29.20,19,8,0,0.00
2013-11-17,58,51,44,44,42,40,87,72,58,29.85,29.65,17,9,0,0.00
2013-11-18,57,52,49,48,44,40,95,72,62,29.83,29.59,17,6,0,0.00
2013-11-19,61,53,45,51,43,31,82,69,58,29.82,29.53,21,8,0,0.00
2013-11-20,45,34,20,32,16,9,69,49,28,30.44,29.82,14,5,0,0.00
2013-11-21,37,24,15,22,16,10,84,71,52,30.69,30.45,5,2,0,0.00
2013-11-22,38,24,14,24,18,10,91,79,56,30.78,30.62,7,2,0,0.00
2013-11-23,36,24,16,25,19,13,90,81,63,30.62,30.35,5,1,0,0.00
2013-11-24,36,25,17,27,21,14,94,86,67,30.38,30.28,4,1,0,0.00
2013-11-25,40,29,22,30,24,19,94,82,62,30.45,30.33,4,1,0,0.00
2013-11-26,37,27,20,30,24,18,95,88,72,30.37,30.19,5,2,0,0.00
2013-11-27,38,29,23,32,26,21,96,89,76,30.20,30.09,5,2,0,0.00
2013-11-28,32,25,21,30,23,19,96,92,84,30.23,30.12,5,2,0,0.00
2013-11-29,30,26,22,28,23,19,93,90,85,30.30,30.21,4,1,0,0.00
2013-11-30,37,32,29,34,30,25,98,92,83,30.31,30.18,5,1,0,0.00
2013-12-1,60,50,31,52,44,21,98,81,49,30.17,29.63,22,6,0,0.00
2013-12-2,55,44,35,46,32,21,84,63,46,29.95,29.61,17,7,0,0.00
2013-12-3,36,29,18,28,18,10,95,64,45,30.25,29.95,19,7,0,0.00
2013-12-4,29,20,12,16,12,9,86,73,52,30.35,30.24,7,3,0,0.00
2013-12-5,24,15,8,16,10,4,88,79,68,30.33,30.24,5,2,0,0.00
2013-12-6,26,19,10,15,9,1,89,68,45,30.28,30.10,12,5,0,0.00
2013-12-7,23,16,7,3,-1,-4,65,48,35,30.42,30.15,15,6,0,0.00
2013-12-8,20,12,6,5,2,-3,75,62,50,30.57,30.40,5,2,0,0.00
2013-12-9,24,15,9,11,7,2,80,70,55,30.55,30.36,8,2,0,0.00
2013-12-10,30,19,13,15,11,7,81,72,53,30.45,30.36,7,2,0,0.00
2013-12-11,31,21,11,19,14,7,87,74,60,30.46,30.30,3,1,0,0.00
2013-12-12,32,26,18,25,20,15,91,80,68,30.29,30.11,4,1,0,0.00
2013-12-13,37,28,21,27,23,19,94,84,67,30.39,30.16,4,1,0,0.00
2013-12-14,39,31,23,31,27,21,94,86,74,30.41,30.23,9,2,0,0.00
2013-12-15,59,40,24,48,36,22,96,84,67,30.25,30.14,14,4,0,0.00
2013-12-16,53,40,28,44,37,25,96,88,66,30.36,30.26,6,2,0,0.00
2013-12-17,36,30,24,35,26,5,97,85,32,30.25,29.95,6,1,0,0.00
2013-12-18,49,35,27,42,30,20,98,81,54,30.04,29.82,9,2,0,0.00
2013-12-19,39,31,22,20,16,12,68,53,37,30.26,30.04,9,2,0,0.00
2013-12-20,40,32,25,36,26,17,97,81,58,30.06,29.56,10,3,0,0.00
2013-12-21,38,31,27,32,29,26,97,90,79,30.09,29.77,4,1,0,0.00
2013-12-22,35,31,29,32,30,28,97,96,89,30.26,30.09,4,1,0,0.00
2013-12-23,59,42,32,50,37,30,98,84,53,30.37,29.99,23,5,0,0.00
2013-12-24,50,37,25,38,31,24,96,80,56,30.51,30.38,7,2,0,0.00
2013-12-25,35,27,19,30,25,18,96,91,76,30.49,30.39,5,1,0,0.00
2013-12-26,31,27,23,30,23,18,97,88,70,30.40,30.28,4,2,0,0.00
2013-12-27,31,28,25,28,21,17,98,77,62,30.28,30.08,7,2,0,0.00
2013-12-28,29,26,24,25,21,18,89,81,66,30.49,30.23,5,1,0,0.00
2013-12-29,32,28,25,31,25,21,98,90,80,30.48,30.23,3,1,0,0.00
2013-12-30,34,31,28,34,30,27,98,97,91,30.30,30.09,6,1,0,0.00
2013-12-31,42,33,28,39,32,23,98,94,81,30.31,30.08,6,2,0,0.00
2014-1-1,32,29,23,31,25,17,98,85,55,30.43,30.31,4,1,0,0.00
2014-1-2,44,34,31,40,26,11,98,77,43,30.33,29.76,7,1,0,0.00